Time;durP1;ratioP1;P1;durP2;ratioP2;P2;SDS_P1;SDS_P2;PMS_P1;PMS_P2;Temp;Humidity;BMP_temperature;BMP_pressure;BME280_temperature;BME280_humidity;BME280_pressure;Samples;Min_cycle;Max_cycle;Signal;HPM_P1;HPM_P2
2022/08/26 00:01:26;;;;;;;46.80;21.80;;;;;;;;;;6237133;28;20489;-58
2022/08/26 00:04:26;;;;;;;43.40;18.93;;;;;;;;;;6227826;28;20095;-56
2022/08/26 00:07:27;;;;;;;44.20;20.20;;;;;;;;;;6226019;28;20152;-58
2022/08/26 00:10:27;;;;;;;51.83;21.37;;;;;;;;;;6229483;28;20095;-58
2022/08/26 00:13:28;;;;;;;49.60;21.77;;;;;;;;;;6229978;28;20084;-56
2022/08/26 00:16:30;;;;;;;49.13;21.03;;;;;;;;;;6227608;28;20061;-57
2022/08/26 00:19:31;;;;;;;47.33;20.33;;;;;;;;;;6226497;28;20116;-58
2022/08/26 00:22:32;;;;;;;41.20;19.52;;;;;;;;;;6230013;28;20488;-57
2022/08/26 00:25:33;;;;;;;50.50;20.57;;;;;;;;;;6223424;28;20044;-57
2022/08/26 00:28:34;;;;;;;50.03;20.67;;;;;;;;;;6233846;28;20041;-57
2022/08/26 00:31:35;;;;;;;43.42;19.85;;;;;;;;;;6228877;28;20052;-56
2022/08/26 00:34:35;;;;;;;50.30;20.00;;;;;;;;;;6219822;28;20049;-59
2022/08/26 00:37:36;;;;;;;52.83;20.43;;;;;;;;;;6222503;28;20493;-58
2022/08/26 00:40:44;;;;;;;45.10;20.63;;;;;;;;;;6222355;28;20578;-56
2022/08/26 00:43:45;;;;;;;47.95;20.30;;;;;;;;;;6220105;28;20311;-58
2022/08/26 00:46:58;;;;;;;47.15;20.08;;;;;;;;;;6221741;28;20405;-56
2022/08/26 00:50:03;;;;;;;44.78;20.02;;;;;;;;;;6220468;28;20046;-58
2022/08/26 00:53:20;;;;;;;45.55;19.13;;;;;;;;;;6222202;28;20108;-56
2022/08/26 00:56:22;;;;;;;44.90;18.60;;;;;;;;;;6220431;28;20046;-57
2022/08/26 00:59:24;;;;;;;48.78;19.75;;;;;;;;;;6220758;28;20081;-56
2022/08/26 01:02:25;;;;;;;47.22;20.45;;;;;;;;;;6222817;28;20054;-58
2022/08/26 01:05:27;;;;;;;42.77;21.33;;;;;;;;;;6219794;28;20166;-58
2022/08/26 01:08:28;;;;;;;;;;;;;;;;;;6221764;28;20496;-58
2022/08/26 01:11:30;;;;;;;46.63;20.45;;;;;;;;;;6220399;28;20008;-58
2022/08/26 01:14:33;;;;;;;49.55;21.58;;;;;;;;;;6221694;28;21037;-58
2022/08/26 01:17:36;;;;;;;45.28;19.65;;;;;;;;;;6218366;28;20048;-57
2022/08/26 01:20:44;;;;;;;48.55;20.25;;;;;;;;;;6221551;28;20549;-57
2022/08/26 01:23:50;;;;;;;47.65;20.58;;;;;;;;;;6219731;28;20046;-57
2022/08/26 01:26:54;;;;;;;47.75;21.63;;;;;;;;;;6221509;28;20049;-56
2022/08/26 01:29:56;;;;;;;48.60;20.88;;;;;;;;;;6219040;28;20417;-57
2022/08/26 01:33:00;;;;;;;50.30;19.63;;;;;;;;;;6221586;28;20097;-55
2022/08/26 01:36:00;;;;;;;53.83;21.50;;;;;;;;;;6228317;28;20081;-58
2022/08/26 01:39:01;;;;;;;48.63;21.10;;;;;;;;;;6221842;28;20536;-58
2022/08/26 01:42:05;;;;;;;44.77;21.40;;;;;;;;;;6222730;28;20045;-57
2022/08/26 01:45:11;;;;;;;47.00;20.38;;;;;;;;;;6224862;28;20132;-56
2022/08/26 01:48:19;;;;;;;45.53;20.52;;;;;;;;;;6222752;28;20140;-57
2022/08/26 01:51:23;;;;;;;43.15;20.27;;;;;;;;;;6222327;28;20849;-56
2022/08/26 01:54:23;;;;;;;46.05;20.00;;;;;;;;;;6222766;28;20080;-58
2022/08/26 01:57:25;;;;;;;50.60;19.70;;;;;;;;;;6221662;28;20158;-59
2022/08/26 02:00:25;;;;;;;44.35;19.80;;;;;;;;;;6220175;28;20445;-56
2022/08/26 02:03:27;;;;;;;41.73;19.10;;;;;;;;;;6219277;28;20042;-57
2022/08/26 02:06:28;;;;;;;38.83;18.65;;;;;;;;;;6233845;28;20392;-57
2022/08/26 02:09:29;;;;;;;45.65;19.63;;;;;;;;;;6241336;28;20047;-58
2022/08/26 02:12:30;;;;;;;52.07;19.87;;;;;;;;;;6240399;28;20041;-58
2022/08/26 02:15:33;;;;;;;40.80;19.27;;;;;;;;;;6224875;28;20132;-59
2022/08/26 02:18:36;;;;;;;44.60;19.38;;;;;;;;;;6220956;28;20625;-56
2022/08/26 02:21:38;;;;;;;38.45;19.02;;;;;;;;;;6221850;28;20500;-55
2022/08/26 02:24:59;;;;;;;46.45;19.95;;;;;;;;;;6221491;28;20079;-57
2022/08/26 02:27:59;;;;;;;42.03;18.30;;;;;;;;;;6221526;28;21002;-59
2022/08/26 02:31:00;;;;;;;39.23;18.60;;;;;;;;;;6219882;28;20057;-56
2022/08/26 02:34:12;;;;;;;46.57;19.83;;;;;;;;;;6225785;28;20144;-59
2022/08/26 02:37:13;;;;;;;47.58;19.73;;;;;;;;;;6220811;28;20381;-59
2022/08/26 02:40:17;;;;;;;42.47;19.57;;;;;;;;;;6219023;28;20053;-57
2022/08/26 02:43:17;;;;;;;42.45;18.50;;;;;;;;;;6219820;28;20294;-57
2022/08/26 02:46:19;;;;;;;49.70;18.90;;;;;;;;;;6221019;28;20408;-56
2022/08/26 02:49:19;;;;;;;49.33;19.27;;;;;;;;;;6220910;28;20050;-57
2022/08/26 02:52:20;;;;;;;47.93;18.23;;;;;;;;;;6219036;28;20582;-59
2022/08/26 02:55:20;;;;;;;41.73;18.40;;;;;;;;;;6222779;28;20049;-57
2022/08/26 02:58:21;;;;;;;44.50;18.93;;;;;;;;;;6228062;28;20038;-56
2022/08/26 03:01:25;;;;;;;49.03;18.40;;;;;;;;;;6221717;28;20045;-58
2022/08/26 03:04:26;;;;;;;52.28;19.10;;;;;;;;;;6218363;28;20540;-56
2022/08/26 03:07:27;;;;;;;46.93;21.23;;;;;;;;;;6221280;28;20034;-57
2022/08/26 03:10:30;;;;;;;48.87;21.33;;;;;;;;;;6219843;28;20053;-58
2022/08/26 03:13:31;;;;;;;49.50;21.00;;;;;;;;;;6222420;28;20045;-57
2022/08/26 03:16:35;;;;;;;50.70;20.30;;;;;;;;;;6218666;28;20042;-56
2022/08/26 03:19:36;;;;;;;49.58;19.83;;;;;;;;;;6220995;28;20041;-56
2022/08/26 03:22:37;;;;;;;52.27;20.87;;;;;;;;;;6219178;28;20046;-56
2022/08/26 03:25:38;;;;;;;51.60;20.20;;;;;;;;;;6221670;28;20158;-58
2022/08/26 03:31:59;;;;;;;44.92;18.95;;;;;;;;;;6216943;28;20046;-59
2022/08/26 03:34:59;;;;;;;48.08;20.15;;;;;;;;;;6224403;28;20055;-59
2022/08/26 03:38:02;;;;;;;50.63;19.43;;;;;;;;;;6219406;28;20046;-58
2022/08/26 03:41:02;;;;;;;42.40;19.30;;;;;;;;;;6220787;28;20046;-59
2022/08/26 03:44:05;;;;;;;46.80;18.87;;;;;;;;;;6219813;28;20084;-58
2022/08/26 03:47:06;;;;;;;46.08;20.05;;;;;;;;;;6222790;28;20057;-56
2022/08/26 03:50:09;;;;;;;52.28;18.95;;;;;;;;;;6219413;28;20065;-58
2022/08/26 03:53:10;;;;;;;48.65;19.13;;;;;;;;;;6219331;28;20069;-58
2022/08/26 03:56:11;;;;;;;52.97;19.60;;;;;;;;;;6222186;28;20044;-58
2022/08/26 03:59:12;;;;;;;49.53;20.10;;;;;;;;;;6223561;28;20054;-58
2022/08/26 04:02:12;;;;;;;48.80;19.90;;;;;;;;;;6222062;28;20042;-58
2022/08/26 04:05:16;;;;;;;44.47;21.40;;;;;;;;;;6221764;28;20156;-58
2022/08/26 04:08:16;;;;;;;50.25;19.02;;;;;;;;;;6221500;28;20084;-56
2022/08/26 04:11:19;;;;;;;41.17;19.07;;;;;;;;;;6218802;28;20046;-58
2022/08/26 04:14:23;;;;;;;41.17;19.52;;;;;;;;;;6218418;28;20045;-58
2022/08/26 04:17:25;;;;;;;47.85;17.77;;;;;;;;;;6218936;28;20046;-58
2022/08/26 04:20:26;;;;;;;46.57;18.93;;;;;;;;;;6227192;28;20049;-56
2022/08/26 04:23:26;;;;;;;40.90;19.03;;;;;;;;;;6234228;28;20160;-57
2022/08/26 04:26:35;;;;;;;39.27;18.20;;;;;;;;;;6239681;28;20073;-56
2022/08/26 04:29:40;;;;;;;46.38;19.60;;;;;;;;;;6233915;28;20393;-55
2022/08/26 04:32:40;;;;;;;42.75;18.70;;;;;;;;;;6224141;28;20463;-55
2022/08/26 04:35:42;;;;;;;42.40;17.83;;;;;;;;;;6222723;28;20076;-55
2022/08/26 04:38:45;;;;;;;38.45;18.08;;;;;;;;;;6225015;28;20140;-58
2022/08/26 04:41:47;;;;;;;48.72;19.55;;;;;;;;;;6221034;28;20137;-58
2022/08/26 04:44:48;;;;;;;44.42;18.98;;;;;;;;;;6222738;28;20073;-57
2022/08/26 04:47:55;;;;;;;47.60;17.85;;;;;;;;;;6222943;28;20168;-57
2022/08/26 04:50:55;;;;;;;51.20;18.98;;;;;;;;;;6223429;28;20062;-59
2022/08/26 04:53:57;;;;;;;43.70;18.73;;;;;;;;;;6220693;28;20183;-58
2022/08/26 04:56:58;;;;;;;47.50;18.83;;;;;;;;;;6221698;28;20049;-57
2022/08/26 04:59:59;;;;;;;46.17;17.63;;;;;;;;;;6223057;28;20489;-57
2022/08/26 05:03:00;;;;;;;42.47;18.33;;;;;;;;;;6219039;28;20464;-59
2022/08/26 05:06:04;;;;;;;37.93;19.03;;;;;;;;;;6246984;28;20052;-57
2022/08/26 05:09:04;;;;;;;43.13;18.10;;;;;;;;;;6247087;28;20136;-56
2022/08/26 05:12:05;;;;;;;43.53;19.40;;;;;;;;;;6243066;28;20048;-57
2022/08/26 05:15:06;;;;;;;43.73;18.77;;;;;;;;;;6241427;28;20140;-56
2022/08/26 05:18:07;;;;;;;47.83;18.33;;;;;;;;;;6241511;28;20069;-56
2022/08/26 05:21:16;;;;;;;43.53;17.77;;;;;;;;;;6241692;28;20041;-58
2022/08/26 05:24:18;;;;;;;38.55;18.30;;;;;;;;;;6240194;28;20140;-58
2022/08/26 05:27:18;;;;;;;34.75;17.33;;;;;;;;;;6242322;28;20089;-56
2022/08/26 05:30:19;;;;;;;42.00;17.93;;;;;;;;;;6241243;28;20058;-58
2022/08/26 05:33:20;;;;;;;47.43;18.93;;;;;;;;;;6234049;28;20045;-58
2022/08/26 05:36:23;;;;;;;44.47;18.42;;;;;;;;;;6240473;28;20562;-58
2022/08/26 05:39:24;;;;;;;43.42;18.15;;;;;;;;;;6235714;28;20136;-56
2022/08/26 05:42:25;;;;;;;44.63;18.58;;;;;;;;;;6224664;28;20089;-56
2022/08/26 05:45:26;;;;;;;44.20;18.63;;;;;;;;;;6236060;28;20076;-57
2022/08/26 05:48:27;;;;;;;48.10;18.43;;;;;;;;;;6220628;28;20057;-58
2022/08/26 05:51:27;;;;;;;44.93;20.00;;;;;;;;;;6229432;28;20137;-56
2022/08/26 05:54:28;;;;;;;44.03;18.87;;;;;;;;;;6229785;28;20042;-56
2022/08/26 05:57:30;;;;;;;42.75;18.60;;;;;;;;;;6221417;28;20563;-56
2022/08/26 06:00:30;;;;;;;41.53;18.83;;;;;;;;;;6236366;28;20108;-56
2022/08/26 06:03:34;;;;;;;46.77;18.40;;;;;;;;;;6216286;28;20422;-56
2022/08/26 06:06:35;;;;;;;47.42;19.05;;;;;;;;;;6239930;28;20049;-57
2022/08/26 06:09:36;;;;;;;48.03;20.55;;;;;;;;;;6249086;28;20049;-57
2022/08/26 06:12:37;;;;;;;49.07;19.10;;;;;;;;;;6233682;28;20049;-57
2022/08/26 06:15:42;;;;;;;40.90;17.33;;;;;;;;;;6220448;28;20056;-56
2022/08/26 06:18:44;;;;;;;39.22;15.35;;;;;;;;;;6218515;28;20037;-58
2022/08/26 06:21:47;;;;;;;46.35;16.75;;;;;;;;;;6220844;28;20488;-56
2022/08/26 06:28:07;;;;;;;42.10;14.85;;;;;;;;;;6221783;28;20595;-55
2022/08/26 06:31:07;;;;;;;39.40;15.68;;;;;;;;;;6220894;28;20136;-57
2022/08/26 06:34:08;;;;;;;42.37;17.47;;;;;;;;;;6221571;28;20048;-54
2022/08/26 06:37:09;;;;;;;43.13;17.77;;;;;;;;;;6234763;28;20045;-56
2022/08/26 06:40:10;;;;;;;43.73;17.50;;;;;;;;;;6238694;28;20076;-56
2022/08/26 06:43:11;;;;;;;47.33;18.02;;;;;;;;;;6239564;28;20570;-58
2022/08/26 06:46:16;;;;;;;43.78;18.65;;;;;;;;;;6234985;28;20081;-56
2022/08/26 06:49:17;;;;;;;48.05;17.95;;;;;;;;;;6219445;28;20164;-55
2022/08/26 06:52:17;;;;;;;45.55;17.15;;;;;;;;;;6219573;28;20060;-57
2022/08/26 06:55:18;;;;;;;45.87;16.77;;;;;;;;;;6216424;28;20065;-57
2022/08/26 06:58:19;;;;;;;38.13;16.20;;;;;;;;;;6220070;28;20398;-57
2022/08/26 07:01:23;;;;;;;38.50;15.90;;;;;;;;;;6222437;28;20092;-57
2022/08/26 07:04:26;;;;;;;37.30;15.13;;;;;;;;;;6221735;28;20045;-57
2022/08/26 07:07:27;;;;;;;32.15;13.38;;;;;;;;;;6216971;28;20187;-56
2022/08/26 07:10:27;;;;;;;23.40;12.70;;;;;;;;;;6222636;28;20485;-57
2022/08/26 07:13:28;;;;;;;32.33;13.77;;;;;;;;;;6233455;28;20645;-57
2022/08/26 07:16:28;;;;;;;39.17;13.80;;;;;;;;;;6216680;28;20065;-57
2022/08/26 07:19:29;;;;;;;35.37;12.93;;;;;;;;;;6219594;28;20059;-57
2022/08/26 07:22:29;;;;;;;29.70;13.13;;;;;;;;;;6218963;28;20053;-56
2022/08/26 07:25:30;;;;;;;27.23;13.57;;;;;;;;;;6216156;28;20045;-57
2022/08/26 07:28:31;;;;;;;37.93;14.13;;;;;;;;;;6220451;28;20046;-57
2022/08/26 07:31:36;;;;;;;32.80;14.60;;;;;;;;;;6221096;28;20139;-57
2022/08/26 07:34:37;;;;;;;30.63;13.73;;;;;;;;;;6216770;28;20401;-56
2022/08/26 07:37:38;;;;;;;;;;;;;;;;;;6218254;28;20045;-56
2022/08/26 07:40:39;;;;;;;39.28;13.13;;;;;;;;;;6231782;28;19925;-57
2022/08/26 07:43:40;;;;;;;34.22;13.80;;;;;;;;;;6236908;28;20554;-55
2022/08/26 07:46:41;;;;;;;35.00;13.57;;;;;;;;;;6236677;28;20049;-57
2022/08/26 07:49:42;;;;;;;38.10;14.07;;;;;;;;;;6228853;28;20132;-56
2022/08/26 07:52:42;;;;;;;35.97;14.93;;;;;;;;;;6223012;28;20053;-55
2022/08/26 07:55:43;;;;;;;30.73;12.93;;;;;;;;;;6228997;28;20033;-55
2022/08/26 07:58:43;;;;;;;34.33;13.80;;;;;;;;;;6241302;28;20041;-56
2022/08/26 08:01:45;;;;;;;31.43;12.97;;;;;;;;;;6243990;28;20088;-55
2022/08/26 08:04:45;;;;;;;35.15;13.38;;;;;;;;;;6236552;28;20041;-57
2022/08/26 08:07:46;;;;;;;36.50;14.53;;;;;;;;;;6245434;28;20040;-57
2022/08/26 08:10:47;;;;;;;38.95;14.63;;;;;;;;;;6229377;28;20387;-58
2022/08/26 08:13:49;;;;;;;31.57;13.40;;;;;;;;;;6223289;28;20045;-59
2022/08/26 08:16:49;;;;;;;33.92;14.15;;;;;;;;;;6221692;28;20037;-58
2022/08/26 08:19:50;;;;;;;36.00;13.97;;;;;;;;;;6225382;28;20582;-57
2022/08/26 08:22:51;;;;;;;38.70;14.80;;;;;;;;;;6222786;28;20049;-58
2022/08/26 08:26:00;;;;;;;;;;;;;;;;;;6223615;28;20050;-58
2022/08/26 08:29:00;;;;;;;28.55;13.38;;;;;;;;;;6223492;28;20403;-56
2022/08/26 08:32:02;;;;;;;31.97;13.80;;;;;;;;;;6222002;28;20045;-56
2022/08/26 08:35:04;;;;;;;30.10;13.60;;;;;;;;;;6219696;28;20049;-58
2022/08/26 08:38:05;;;;;;;36.97;14.30;;;;;;;;;;6222944;28;20069;-57
2022/08/26 08:41:22;;;;;;;32.87;14.17;;;;;;;;;;6224183;28;20065;-58
2022/08/26 08:44:24;;;;;;;35.33;14.63;;;;;;;;;;6221045;28;20060;-58
2022/08/26 08:47:29;;;;;;;;;;;;;;;;;;6220715;28;20136;-57
2022/08/26 08:50:41;;;;;;;29.67;13.35;;;;;;;;;;6221806;28;20052;-55
2022/08/26 08:53:44;;;;;;;39.80;13.85;;;;;;;;;;6221052;28;20057;-58
2022/08/26 08:56:45;;;;;;;35.33;14.50;;;;;;;;;;6220404;28;21237;-58
2022/08/26 08:59:53;;;;;;;33.63;14.83;;;;;;;;;;6222876;28;20042;-58
2022/08/26 09:03:10;;;;;;;28.60;13.70;;;;;;;;;;6222363;28;20084;-57
2022/08/26 09:06:17;;;;;;;38.45;13.68;;;;;;;;;;6239510;28;20048;-58
2022/08/26 09:09:44;;;;;;;33.05;13.73;;;;;;;;;;6241332;28;20038;-58
2022/08/26 09:12:47;;;;;;;34.47;13.13;;;;;;;;;;6229273;28;20088;-56
2022/08/26 09:16:05;;;;;;;30.58;13.55;;;;;;;;;;6218494;28;20867;-56
2022/08/26 09:19:47;;;;;;;29.63;13.52;;;;;;;;;;6224154;28;20507;-59
2022/08/26 09:22:48;;;;;;;38.00;13.98;;;;;;;;;;6185207;28;20576;-56
2022/08/26 09:25:53;;;;;;;32.37;13.43;;;;;;;;;;6163982;28;20129;-57
2022/08/26 09:29:00;;;;;;;33.20;13.75;;;;;;;;;;6222639;28;20044;-56
2022/08/26 09:32:23;;;;;;;27.80;13.70;;;;;;;;;;6220751;28;20461;-57
2022/08/26 09:35:39;;;;;;;35.83;13.45;;;;;;;;;;6218162;28;20050;-57
2022/08/26 09:38:41;;;;;;;28.08;12.07;;;;;;;;;;6222519;28;20428;-57
2022/08/26 09:41:42;;;;;;;28.05;12.55;;;;;;;;;;6221358;28;20199;-56
2022/08/26 09:44:55;;;;;;;25.67;11.37;;;;;;;;;;6221412;28;20033;-56
2022/08/26 09:47:57;;;;;;;22.40;11.20;;;;;;;;;;6218600;28;20062;-56
2022/08/26 09:51:22;;;;;;;30.50;12.35;;;;;;;;;;6220948;28;20041;-55
2022/08/26 09:54:25;;;;;;;30.10;12.60;;;;;;;;;;6220085;28;20495;-55
2022/08/26 09:57:29;;;;;;;25.83;11.55;;;;;;;;;;6219740;28;20228;-56
2022/08/26 10:00:38;;;;;;;26.77;11.63;;;;;;;;;;6221477;28;21368;-56
2022/08/26 10:03:39;;;;;;;25.85;10.98;;;;;;;;;;6228234;28;20132;-56
2022/08/26 10:07:02;;;;;;;23.63;10.82;;;;;;;;;;6225758;28;20567;-58
2022/08/26 10:10:17;;;;;;;28.50;11.35;;;;;;;;;;6227129;28;20068;-58
2022/08/26 10:13:27;;;;;;;21.00;11.20;;;;;;;;;;6221942;28;21438;-58
2022/08/26 10:16:38;;;;;;;29.38;12.73;;;;;;;;;;6220307;28;20148;-56
2022/08/26 10:19:41;;;;;;;27.48;11.65;;;;;;;;;;6220261;28;20136;-58
2022/08/26 10:22:57;;;;;;;26.75;10.80;;;;;;;;;;6220642;28;20041;-57
2022/08/26 10:26:11;;;;;;;25.50;10.73;;;;;;;;;;6219523;28;20148;-55
2022/08/26 10:29:20;;;;;;;25.70;10.50;;;;;;;;;;6221188;28;20099;-57
2022/08/26 10:32:34;;;;;;;23.27;10.35;;;;;;;;;;6219139;28;20135;-57
2022/08/26 10:35:39;;;;;;;21.45;9.68;;;;;;;;;;6217081;28;20327;-56
2022/08/26 10:38:40;;;;;;;24.67;10.20;;;;;;;;;;6221710;28;20236;-57
2022/08/26 10:41:44;;;;;;;26.02;9.88;;;;;;;;;;6221609;28;20046;-57
2022/08/26 10:44:48;;;;;;;27.73;10.32;;;;;;;;;;6220161;28;20065;-57
2022/08/26 10:48:03;;;;;;;33.80;9.95;;;;;;;;;;6219519;28;20091;-57
2022/08/26 10:51:05;;;;;;;25.48;10.68;;;;;;;;;;6222325;28;20049;-58
2022/08/26 10:54:08;;;;;;;25.08;9.90;;;;;;;;;;6220030;28;20046;-58
2022/08/26 10:57:26;;;;;;;26.77;9.48;;;;;;;;;;6215472;28;20059;-58
2022/08/26 11:04:28;;;;;;;25.85;9.07;;;;;;;;;;6179452;28;20046;-57
2022/08/26 11:07:36;;;;;;;18.77;8.80;;;;;;;;;;6217578;28;20061;-57
2022/08/26 11:10:37;;;;;;;25.88;9.15;;;;;;;;;;6216296;28;20053;-57
2022/08/26 11:13:56;;;;;;;22.50;8.90;;;;;;;;;;6218668;28;20057;-57
2022/08/26 11:16:58;;;;;;;28.95;8.57;;;;;;;;;;6214028;28;20187;-57
2022/08/26 11:20:00;;;;;;;16.90;8.32;;;;;;;;;;6219514;28;20049;-56
2022/08/26 11:23:13;;;;;;;21.88;9.10;;;;;;;;;;6219362;28;20953;-57
2022/08/26 11:26:16;;;;;;;22.95;9.73;;;;;;;;;;6217415;28;20107;-57
2022/08/26 11:29:55;;;;;;;21.08;8.65;;;;;;;;;;6218677;28;20095;-57
2022/08/26 11:32:58;;;;;;;25.90;8.23;;;;;;;;;;6219145;28;20123;-58
2022/08/26 11:35:59;;;;;;;28.50;8.73;;;;;;;;;;6217832;28;20057;-57
2022/08/26 11:39:27;;;;;;;18.80;7.68;;;;;;;;;;6226414;28;20057;-55
2022/08/26 11:42:38;;;;;;;18.00;7.85;;;;;;;;;;6229414;28;20690;-57
2022/08/26 11:45:45;;;;;;;23.10;8.23;;;;;;;;;;6225528;28;20050;-57
2022/08/26 11:48:46;;;;;;;23.38;8.40;;;;;;;;;;6226363;28;20128;-57
2022/08/26 11:51:47;;;;;;;22.97;8.13;;;;;;;;;;6228353;28;20042;-54
2022/08/26 11:55:23;;;;;;;22.85;7.85;;;;;;;;;;6227744;28;20109;-56
2022/08/26 11:58:26;;;;;;;18.90;7.75;;;;;;;;;;6129329;28;20054;-58
2022/08/26 12:01:36;;;;;;;19.50;7.97;;;;;;;;;;6227134;28;20599;-58
2022/08/26 12:04:40;;;;;;;20.48;9.10;;;;;;;;;;6227770;28;20576;-57
2022/08/26 12:07:41;;;;;;;26.52;7.80;;;;;;;;;;6228340;28;20136;-57
2022/08/26 12:10:42;;;;;;;18.88;7.50;;;;;;;;;;6228430;28;20129;-57
2022/08/26 12:13:59;;;;;;;22.45;8.32;;;;;;;;;;6230115;28;20413;-57
2022/08/26 12:17:24;;;;;;;17.90;7.50;;;;;;;;;;6227830;28;20045;-57
2022/08/26 12:20:30;;;;;;;17.92;7.90;;;;;;;;;;6228749;28;20080;-56
2022/08/26 12:23:33;;;;;;;19.83;6.85;;;;;;;;;;6228639;28;20084;-57
2022/08/26 12:26:35;;;;;;;21.42;7.82;;;;;;;;;;6222793;28;20201;-57
2022/08/26 12:29:36;;;;;;;20.13;7.38;;;;;;;;;;6219138;28;20789;-56
2022/08/26 12:32:40;;;;;;;23.63;8.52;;;;;;;;;;6217881;28;20053;-58
2022/08/26 12:35:41;;;;;;;21.85;7.63;;;;;;;;;;6216797;28;20405;-58
2022/08/26 12:38:42;;;;;;;21.38;8.27;;;;;;;;;;6220188;28;20049;-57
2022/08/26 12:41:52;;;;;;;19.38;8.23;;;;;;;;;;6221463;28;20918;-58
2022/08/26 12:45:03;;;;;;;22.23;7.50;;;;;;;;;;6222728;28;20053;-57
2022/08/26 12:48:19;;;;;;;29.35;8.02;;;;;;;;;;6221296;28;20519;-57
2022/08/26 12:51:26;;;;;;;26.63;8.68;;;;;;;;;;6221754;28;20067;-60
2022/08/26 12:54:57;;;;;;;25.83;9.40;;;;;;;;;;6230198;28;20055;-53
2022/08/26 12:57:47;;;;;;;18.53;8.40;;;;;;;;;;6230632;28;20081;-58
2022/08/26 13:01:10;;;;;;;22.42;8.95;;;;;;;;;;6231970;28;20299;-58
2022/08/26 13:04:56;;;;;;;20.77;8.50;;;;;;;;;;6224032;28;20128;-59
2022/08/26 13:08:25;;;;;;;21.90;9.65;;;;;;;;;;6180675;28;20038;-59
2022/08/26 13:11:38;;;;;;;26.98;9.10;;;;;;;;;;6229281;28;20200;-58
2022/08/26 13:14:39;;;;;;;26.38;9.75;;;;;;;;;;6230168;28;20676;-60
2022/08/26 13:17:40;;;;;;;;;;;;;;;;;;6232402;28;20041;-59
2022/08/26 13:20:42;;;;;;;24.47;9.90;;;;;;;;;;6231779;28;19931;-59
2022/08/26 13:23:44;;;;;;;22.10;9.65;;;;;;;;;;6232339;28;20054;-57
2022/08/26 13:26:45;;;;;;;;;;;;;;;;;;6231848;28;20069;-59
2022/08/26 13:29:46;;;;;;;;;;;;;;;;;;6232739;28;19925;-60
2022/08/26 13:32:47;;;;;;;25.85;10.20;;;;;;;;;;6231511;28;20391;-58
2022/08/26 13:35:47;;;;;;;26.20;10.05;;;;;;;;;;6226743;28;20069;-60
2022/08/26 13:38:48;;;;;;;25.07;9.87;;;;;;;;;;6230178;28;20578;-60
2022/08/26 13:41:49;;;;;;;18.77;9.68;;;;;;;;;;6231358;28;20634;-60
2022/08/26 13:44:51;;;;;;;19.50;9.73;;;;;;;;;;6231664;28;20056;-61
2022/08/26 13:47:52;;;;;;;22.05;9.65;;;;;;;;;;6225242;28;20068;-59
2022/08/26 13:50:53;;;;;;;27.15;8.82;;;;;;;;;;6229752;28;20037;-59
2022/08/26 13:53:54;;;;;;;18.70;9.00;;;;;;;;;;6224005;28;20049;-57
2022/08/26 13:56:55;;;;;;;21.65;8.38;;;;;;;;;;6228281;28;20049;-58
2022/08/26 13:59:57;;;;;;;23.90;9.00;;;;;;;;;;6229329;28;21177;-59
2022/08/26 14:02:59;;;;;;;15.20;8.35;;;;;;;;;;6229774;28;20053;-58
2022/08/26 14:06:00;;;;;;;19.95;8.30;;;;;;;;;;6227739;28;20144;-59
2022/08/26 14:09:00;;;;;;;26.25;9.00;;;;;;;;;;6231553;28;20055;-58
2022/08/26 14:12:01;;;;;;;25.73;9.50;;;;;;;;;;6223485;28;20136;-59
2022/08/26 14:15:02;;;;;;;21.02;8.20;;;;;;;;;;6221581;28;20057;-58
2022/08/26 14:18:05;;;;;;;24.98;9.23;;;;;;;;;;6219034;28;20065;-59
2022/08/26 14:21:10;;;;;;;23.42;9.05;;;;;;;;;;6221146;28;20057;-59
2022/08/26 14:24:10;;;;;;;16.92;8.55;;;;;;;;;;6221115;28;20100;-59
2022/08/26 14:27:11;;;;;;;25.90;8.95;;;;;;;;;;6219141;28;20046;-59
2022/08/26 14:30:12;;;;;;;19.02;8.32;;;;;;;;;;6220627;28;20088;-59
2022/08/26 14:33:14;;;;;;;17.85;7.55;;;;;;;;;;6219796;28;20549;-59
2022/08/26 14:36:26;;;;;;;20.42;8.18;;;;;;;;;;6218961;28;20053;-59
2022/08/26 14:39:27;;;;;;;18.05;8.05;;;;;;;;;;6220783;28;20570;-58
2022/08/26 14:42:29;;;;;;;23.42;8.65;;;;;;;;;;6218344;28;20057;-59
2022/08/26 14:45:39;;;;;;;20.45;8.25;;;;;;;;;;6218802;28;20085;-58
2022/08/26 14:48:40;;;;;;;18.27;7.90;;;;;;;;;;6221159;28;20494;-59
2022/08/26 14:51:41;;;;;;;21.80;7.72;;;;;;;;;;6221256;28;20045;-57
2022/08/26 14:54:42;;;;;;;18.75;7.15;;;;;;;;;;6221460;28;20084;-59
2022/08/26 14:57:42;;;;;;;19.38;7.55;;;;;;;;;;6219899;28;20642;-59
2022/08/26 15:00:43;;;;;;;18.55;7.63;;;;;;;;;;6221565;28;20046;-59
2022/08/26 15:03:43;;;;;;;24.10;8.93;;;;;;;;;;6218301;28;20041;-59
2022/08/26 15:06:45;;;;;;;21.58;8.57;;;;;;;;;;6218603;28;20389;-58
2022/08/26 15:09:45;;;;;;;20.98;8.20;;;;;;;;;;6223218;28;20504;-59
2022/08/26 15:12:46;;;;;;;23.30;7.75;;;;;;;;;;6217773;28;20199;-59
2022/08/26 15:15:46;;;;;;;22.20;7.82;;;;;;;;;;6219016;28;20057;-59
2022/08/26 15:18:48;;;;;;;30.83;8.80;;;;;;;;;;6220879;28;21601;-60
2022/08/26 15:21:49;;;;;;;20.42;7.80;;;;;;;;;;6219850;28;20085;-59
2022/08/26 15:24:50;;;;;;;24.63;7.90;;;;;;;;;;6220739;28;20103;-59
2022/08/26 15:27:51;;;;;;;;;;;;;;;;;;6221901;28;20049;-59
2022/08/26 15:30:52;;;;;;;23.25;7.88;;;;;;;;;;6221364;28;19924;-59
2022/08/26 15:33:55;;;;;;;23.83;8.40;;;;;;;;;;6221661;28;20053;-58
2022/08/26 15:36:55;;;;;;;23.10;9.02;;;;;;;;;;6229330;28;20130;-58
2022/08/26 15:39:56;;;;;;;;;;;;;;;;;;6230974;28;20041;-58
2022/08/26 15:42:56;;;;;;;19.52;8.38;;;;;;;;;;6229138;28;19929;-59
2022/08/26 15:45:57;;;;;;;19.20;9.53;;;;;;;;;;6225067;28;20940;-58
2022/08/26 15:48:58;;;;;;;;;;;;;;;;;;6229599;28;20053;-60
2022/08/26 15:51:59;;;;;;;17.60;8.73;;;;;;;;;;6230238;28;19935;-59
2022/08/26 15:54:59;;;;;;;18.80;8.90;;;;;;;;;;6227478;28;20743;-58
2022/08/26 15:58:00;;;;;;;20.08;9.68;;;;;;;;;;6227100;28;21375;-59
2022/08/26 16:01:00;;;;;;;;;;;;;;;;;;6229627;28;20132;-60
2022/08/26 16:04:01;;;;;;;18.93;8.73;;;;;;;;;;6228094;28;20379;-59
2022/08/26 16:07:03;;;;;;;17.88;8.73;;;;;;;;;;6227017;28;20140;-58
2022/08/26 16:10:04;;;;;;;22.77;9.30;;;;;;;;;;6228723;28;20061;-62
2022/08/26 16:13:04;;;;;;;;;;;;;;;;;;6227746;28;20096;-64
2022/08/26 16:16:06;;;;;;;20.40;9.40;;;;;;;;;;6228122;28;19935;-59
2022/08/26 16:19:07;;;;;;;29.90;9.70;;;;;;;;;;6231475;28;20476;-59
2022/08/26 16:22:08;;;;;;;;;;;;;;;;;;6240155;28;20128;-64
2022/08/26 16:25:09;;;;;;;22.98;10.18;;;;;;;;;;6241284;28;19964;-57
2022/08/26 16:28:12;;;;;;;23.05;9.07;;;;;;;;;;6233189;28;20144;-58
2022/08/26 16:31:14;;;;;;;26.23;11.10;;;;;;;;;;6241825;28;20042;-57
2022/08/26 16:34:15;;;;;;;27.15;11.32;;;;;;;;;;6241006;28;20073;-57
2022/08/26 16:37:15;;;;;;;;;;;;;;;;;;6242929;28;20053;-59
2022/08/26 16:40:16;;;;;;;28.77;11.20;;;;;;;;;;6242464;28;20079;-58
2022/08/26 16:43:16;;;;;;;29.50;10.85;;;;;;;;;;6241957;28;20084;-58
2022/08/26 16:46:17;;;;;;;27.63;10.02;;;;;;;;;;6238983;28;20041;-58
2022/08/26 16:49:18;;;;;;;31.70;10.20;;;;;;;;;;6232337;28;20053;-57
2022/08/26 16:52:19;;;;;;;32.78;12.38;;;;;;;;;;6235210;28;20041;-58
2022/08/26 16:55:21;;;;;;;32.30;11.63;;;;;;;;;;6237439;28;20073;-57
2022/08/26 16:58:21;;;;;;;28.52;11.65;;;;;;;;;;6240046;28;20107;-59
2022/08/26 17:01:22;;;;;;;22.30;11.00;;;;;;;;;;6237156;28;20139;-59
2022/08/26 17:04:23;;;;;;;25.60;11.02;;;;;;;;;;6240758;28;20416;-59
2022/08/26 17:07:25;;;;;;;25.23;11.60;;;;;;;;;;6242552;28;20873;-58
2022/08/26 17:10:27;;;;;;;26.67;10.27;;;;;;;;;;6242350;28;20918;-58
2022/08/26 17:13:29;;;;;;;21.73;11.20;;;;;;;;;;6240885;28;20049;-58
2022/08/26 17:16:30;;;;;;;23.50;11.40;;;;;;;;;;6241540;28;20072;-59
2022/08/26 17:19:30;;;;;;;27.08;11.48;;;;;;;;;;6240870;28;20472;-57
2022/08/26 17:22:31;;;;;;;33.00;13.27;;;;;;;;;;6237621;28;20135;-58
2022/08/26 17:25:32;;;;;;;34.00;13.70;;;;;;;;;;6235212;28;20408;-58
2022/08/26 17:28:32;;;;;;;38.20;14.75;;;;;;;;;;6240935;28;20047;-57
2022/08/26 17:31:33;;;;;;;53.33;17.73;;;;;;;;;;6237765;28;20407;-58
2022/08/26 17:34:34;;;;;;;43.95;15.65;;;;;;;;;;6239417;28;20045;-58
2022/08/26 17:37:35;;;;;;;29.35;13.10;;;;;;;;;;6238657;28;20052;-58
2022/08/26 17:40:35;;;;;;;31.67;13.48;;;;;;;;;;6237570;28;20056;-57
2022/08/26 17:43:37;;;;;;;26.77;13.30;;;;;;;;;;6237165;28;20504;-58
2022/08/26 17:46:38;;;;;;;30.42;13.35;;;;;;;;;;6232470;28;20849;-57
2022/08/26 17:49:39;;;;;;;32.77;12.97;;;;;;;;;;6226047;28;20137;-58
2022/08/26 17:52:40;;;;;;;29.15;13.07;;;;;;;;;;6219893;28;20045;-57
2022/08/26 17:55:41;;;;;;;28.15;12.77;;;;;;;;;;6240417;28;20049;-59
2022/08/26 17:58:42;;;;;;;32.43;12.70;;;;;;;;;;6239175;28;20539;-59
2022/08/26 18:01:43;;;;;;;27.35;12.63;;;;;;;;;;6238639;28;20037;-56
2022/08/26 18:04:43;;;;;;;30.63;12.50;;;;;;;;;;6233213;28;20045;-56
2022/08/26 18:07:44;;;;;;;26.63;12.85;;;;;;;;;;6235580;28;20048;-51
2022/08/26 18:10:46;;;;;;;34.35;12.88;;;;;;;;;;6233084;28;20041;-56